Time;durP1;ratioP1;P1;durP2;ratioP2;P2;SDS_P1;SDS_P2;PMS_P1;PMS_P2;Temp;Humidity;BMP_temperature;BMP_pressure;BME280_temperature;BME280_humidity;BME280_pressure;Samples;Min_cycle;Max_cycle;Signal;HPM_P1;HPM_P2
2022/09/25 00:00:42;;;;;;;;;;;;;;;;;;2140651;27;19982;-46
2022/09/25 00:01:43;;;;;;;;;;;;;;;;;;2140681;27;19926;-46
2022/09/25 00:02:44;;;;;;;;;;;;;;;;;;2140696;27;20010;-46
2022/09/25 00:03:45;;;;;;;;;;;;;;;;;;2140489;27;19930;-46
2022/09/25 00:04:46;;;;;;;;;;;;;;;;;;2140592;27;20415;-45
2022/09/25 00:05:47;;;;;;;;;;;;;;;;;;2140558;27;19930;-47
2022/09/25 00:06:48;;;;;;;;;;;;;;;;;;2140573;27;19930;-45
2022/09/25 00:07:49;;;;;;;;;;;;;;;;;;2140540;27;20033;-46
2022/09/25 00:08:49;;;;;;;;;;;;;;;;;;2140466;27;19923;-47
2022/09/25 00:09:50;;;;;;;;;;;;;;;;;;2140770;27;19923;-47
2022/09/25 00:10:51;;;;;;;;;;;;;;;;;;2140511;27;19923;-45
2022/09/25 00:11:52;;;;;;;;;;;;;;;;;;2140287;27;19923;-45
2022/09/25 00:12:53;;;;;;;;;;;;;;;;;;2140490;27;20379;-46
2022/09/25 00:13:54;;;;;;;;;;;;;;;;;;2140489;27;19923;-46
2022/09/25 00:14:55;;;;;;;;;;;;;;;;;;2140469;27;19923;-47
2022/09/25 00:15:56;;;;;;;;;;;;;;;;;;2140443;27;20290;-47
2022/09/25 00:16:57;;;;;;;;;;;;;;;;;;2140350;27;19922;-45
2022/09/25 00:17:58;;;;;;;;;;;;;;;;;;2140598;27;19922;-46
2022/09/25 00:20:19;;;;;;;;;;;;;;;;;;2140417;27;19923;-46
2022/09/25 00:21:20;;;;;;;;;;;;;;;;;;2140327;27;20367;-47
2022/09/25 00:22:21;;;;;;;;;;;;;;;;;;2140591;27;19923;-45
2022/09/25 00:23:21;;;;;;;;;;;;;;;;;;2140298;27;19946;-45
2022/09/25 00:24:22;;;;;;;;;;;;;;;;;;2140262;27;20498;-47
2022/09/25 00:25:27;;;;;;;;;;;;;;;;;;2140405;27;19927;-49
2022/09/25 00:26:28;;;;;;;;;;;;;;;;;;2140358;27;19929;-46
2022/09/25 00:27:29;;;;;;;;;;;;;;;;;;2140573;27;19929;-46
2022/09/25 00:28:30;;;;;;;;;;;;;;;;;;2140323;27;19922;-46
2022/09/25 00:29:31;;;;;;;;;;;;;;;;;;2140571;27;19922;-47
2022/09/25 00:30:32;;;;;;;;;;;;;;;;;;2140338;27;19922;-46
2022/09/25 00:31:33;;;;;;;;;;;;;;;;;;2140288;27;19942;-45
2022/09/25 00:32:34;;;;;;;;;;;;;;;;;;2140468;27;19927;-45
2022/09/25 00:33:35;;;;;;;;;;;;;;;;;;2140371;27;20322;-46
2022/09/25 00:34:36;;;;;;;;;;;;;;;;;;2140311;27;20209;-45
2022/09/25 00:35:37;;;;;;;;;;;;;;;;;;2140696;27;19929;-46
2022/09/25 00:36:38;;;;;;;;;;;;;;;;;;2140272;27;19930;-46
2022/09/25 00:37:39;;;;;;;;;;;;;;;;;;2140531;27;19923;-46
2022/09/25 00:38:39;;;;;;;;;;;;;;;;;;2140355;27;19922;-45
2022/09/25 00:39:40;;;;;;;;;;;;;;;;;;2140321;27;19922;-45
2022/09/25 00:40:41;;;;;;;;;;;;;;;;;;2140556;27;19931;-45
2022/09/25 00:41:42;;;;;;;;;;;;;;;;;;2140220;27;20371;-46
2022/09/25 00:42:43;;;;;;;;;;;;;;;;;;2140450;27;20002;-46
2022/09/25 00:43:44;;;;;;;;;;;;;;;;;;2140218;27;20381;-45
2022/09/25 00:44:45;;;;;;;;;;;;;;;;;;2140449;27;19923;-45
2022/09/25 00:45:46;;;;;;;;;;;;;;;;;;2140321;27;19923;-46
2022/09/25 00:46:46;;;;;;;;;;;;;;;;;;2140246;27;19923;-45
2022/09/25 00:47:47;;;;;;;;;;;;;;;;;;2140278;27;19923;-47
2022/09/25 00:48:48;;;;;;;;;;;;;;;;;;2140274;27;19923;-46
2022/09/25 00:49:49;;;;;;;;;;;;;;;;;;2140225;27;19923;-46
2022/09/25 00:50:50;;;;;;;;;;;;;;;;;;2141808;27;19927;-45
2022/09/25 00:51:51;;;;;;;;;;;;;;;;;;2141952;27;19922;-45
2022/09/25 00:52:55;;;;;;;;;;;;;;;;;;2141819;27;19926;-46
2022/09/25 00:53:56;;;;;;;;;;;;;;;;;;2142240;27;19927;-45
2022/09/25 00:54:57;;;;;;;;;;;;;;;;;;2141833;27;19923;-46
2022/09/25 00:55:58;;;;;;;;;;;;;;;;;;2141932;27;20316;-46
2022/09/25 00:56:59;;;;;;;;;;;;;;;;;;2141815;27;20348;-45
2022/09/25 00:57:59;;;;;;;;;;;;;;;;;;2141780;27;19922;-45
2022/09/25 00:59:00;;;;;;;;;;;;;;;;;;2141786;27;19923;-46
2022/09/25 01:00:01;;;;;;;;;;;;;;;;;;2141679;27;20029;-46
2022/09/25 01:01:02;;;;;;;;;;;;;;;;;;2141753;27;19922;-46
2022/09/25 01:02:03;;;;;;;;;;;;;;;;;;2141649;27;19923;-46
2022/09/25 01:03:04;;;;;;;;;;;;;;;;;;2141939;27;19970;-46
2022/09/25 01:04:04;;;;;;;;;;;;;;;;;;2141904;27;19922;-42
2022/09/25 01:05:05;;;;;;;;;;;;;;;;;;2141754;27;19923;-42
2022/09/25 01:06:07;;;;;;;;;;;;;;;;;;2141695;27;19929;-42
2022/09/25 01:07:08;;;;;;;;;;;;;;;;;;2141638;27;19927;-43
2022/09/25 01:08:09;;;;;;;;;;;;;;;;;;2141687;27;19923;-42
2022/09/25 01:09:10;;;;;;;;;;;;;;;;;;2141727;27;20030;-42
2022/09/25 01:10:10;;;;;;;;;;;;;;;;;;2141715;27;20002;-42
2022/09/25 01:11:11;;;;;;;;;;;;;;;;;;2141485;27;19975;-42
2022/09/25 01:12:12;;;;;;;;;;;;;;;;;;2141785;27;19929;-42
2022/09/25 01:13:13;;;;;;;;;;;;;;;;;;2141635;27;19927;-42
2022/09/25 01:14:16;;;;;;;;;;;;;;;;;;2141666;27;19934;-42
2022/09/25 01:15:17;;;;;;;;;;;;;;;;;;2141642;27;19923;-42
2022/09/25 01:16:17;;;;;;;;;;;;;;;;;;2141608;27;19922;-42
2022/09/25 01:17:18;;;;;;;;;;;;;;;;;;2141714;27;19922;-42
2022/09/25 01:18:19;;;;;;;;;;;;;;;;;;2141794;27;19969;-42
2022/09/25 01:19:20;;;;;;;;;;;;;;;;;;2141608;27;19923;-42
2022/09/25 01:20:20;;;;;;;;;;;;;;;;;;2141786;27;19967;-42
2022/09/25 01:21:21;;;;;;;;;;;;;;;;;;2141686;27;20375;-42
2022/09/25 01:22:22;;;;;;;;;;;;;;;;;;2141593;27;20344;-42
2022/09/25 01:23:23;;;;;;;;;;;;;;;;;;2141818;27;20045;-42
2022/09/25 01:24:24;;;;;;;;;;;;;;;;;;2141669;27;19931;-42
2022/09/25 01:25:24;;;;;;;;;;;;;;;;;;2141737;27;20370;-42
2022/09/25 01:26:25;;;;;;;;;;;;;;;;;;2141454;27;19973;-42
2022/09/25 01:27:26;;;;;;;;;;;;;;;;;;2141606;27;19923;-42
2022/09/25 01:28:28;;;;;;;;;;;;;;;;;;2141613;27;19965;-42
2022/09/25 01:29:28;;;;;;;;;;;;;;;;;;2141625;27;19925;-42
2022/09/25 01:30:29;;;;;;;;;;;;;;;;;;2141737;27;19923;-42
2022/09/25 01:31:30;;;;;;;;;;;;;;;;;;2141486;27;19929;-42
2022/09/25 01:32:31;;;;;;;;;;;;;;;;;;2141929;27;19996;-42
2022/09/25 01:33:32;;;;;;;;;;;;;;;;;;2141536;27;19923;-42
2022/09/25 01:34:33;;;;;;;;;;;;;;;;;;2141646;27;19922;-42
2022/09/25 01:35:34;;;;;;;;;;;;;;;;;;2141527;27;19927;-42
2022/09/25 01:36:35;;;;;;;;;;;;;;;;;;2141633;27;19923;-42
2022/09/25 01:37:35;;;;;;;;;;;;;;;;;;2141520;27;19923;-42
2022/09/25 01:38:37;;;;;;;;;;;;;;;;;;2141541;27;19977;-42
2022/09/25 01:39:38;;;;;;;;;;;;;;;;;;2141398;27;19923;-42
2022/09/25 01:40:39;;;;;;;;;;;;;;;;;;2141509;27;20434;-42
2022/09/25 01:41:40;;;;;;;;;;;;;;;;;;2141571;27;20006;-42
2022/09/25 01:42:41;;;;;;;;;;;;;;;;;;2141936;27;19922;-42
2022/09/25 01:43:42;;;;;;;;;;;;;;;;;;2141448;27;19923;-43
2022/09/25 01:44:43;;;;;;;;;;;;;;;;;;2141718;27;19923;-46
2022/09/25 01:45:43;;;;;;;;;;;;;;;;;;2141601;27;19934;-47
2022/09/25 01:46:44;;;;;;;;;;;;;;;;;;2141463;27;20152;-47
2022/09/25 01:47:45;;;;;;;;;;;;;;;;;;2141761;27;20439;-42
2022/09/25 01:48:46;;;;;;;;;;;;;;;;;;2141406;27;19922;-42
2022/09/25 01:49:47;;;;;;;;;;;;;;;;;;2141611;27;19922;-42
2022/09/25 01:50:48;;;;;;;;;;;;;;;;;;2141475;27;20290;-42
2022/09/25 01:51:49;;;;;;;;;;;;;;;;;;2141577;27;19923;-46
2022/09/25 01:52:50;;;;;;;;;;;;;;;;;;2141558;27;19965;-45
2022/09/25 01:53:50;;;;;;;;;;;;;;;;;;2141615;27;19930;-45
2022/09/25 01:54:51;;;;;;;;;;;;;;;;;;2141472;27;19929;-46
2022/09/25 01:55:52;;;;;;;;;;;;;;;;;;2141355;27;19975;-46
2022/09/25 01:56:53;;;;;;;;;;;;;;;;;;2141340;27;19930;-45
2022/09/25 01:57:54;;;;;;;;;;;;;;;;;;2141960;27;19931;-42
2022/09/25 01:58:55;;;;;;;;;;;;;;;;;;2141476;27;20387;-42
2022/09/25 01:59:55;;;;;;;;;;;;;;;;;;2141367;27;19927;-42
2022/09/25 02:00:56;;;;;;;;;;;;;;;;;;2141074;27;19930;-42
2022/09/25 02:01:57;;;;;;;;;;;;;;;;;;2141313;27;20005;-42
2022/09/25 02:02:58;;;;;;;;;;;;;;;;;;2141355;27;19926;-42
2022/09/25 02:03:59;;;;;;;;;;;;;;;;;;2141507;27;19926;-42
2022/09/25 02:05:00;;;;;;;;;;;;;;;;;;2141407;27;20347;-42
2022/09/25 02:06:01;;;;;;;;;;;;;;;;;;2141489;27;20278;-42
2022/09/25 02:07:02;;;;;;;;;;;;;;;;;;2141285;27;19923;-43
2022/09/25 02:08:03;;;;;;;;;;;;;;;;;;2141532;27;20401;-46
2022/09/25 02:09:04;;;;;;;;;;;;;;;;;;2141442;27;19970;-47
2022/09/25 02:10:04;;;;;;;;;;;;;;;;;;2141360;27;20418;-46
2022/09/25 02:11:05;;;;;;;;;;;;;;;;;;2141226;27;19978;-46
2022/09/25 02:12:06;;;;;;;;;;;;;;;;;;2141366;27;19983;-47
2022/09/25 02:13:07;;;;;;;;;;;;;;;;;;2141438;27;19923;-45
2022/09/25 02:14:08;;;;;;;;;;;;;;;;;;2141275;27;19928;-46
2022/09/25 02:15:09;;;;;;;;;;;;;;;;;;2141294;27;20276;-46
2022/09/25 02:16:10;;;;;;;;;;;;;;;;;;2141203;27;19933;-45
2022/09/25 02:17:11;;;;;;;;;;;;;;;;;;2141113;27;20321;-47
2022/09/25 02:20:51;;;;;;;;;;;;;;;;;;2141252;27;20319;-45
2022/09/25 02:21:52;;;;;;;;;;;;;;;;;;2141449;27;19923;-46
2022/09/25 02:22:53;;;;;;;;;;;;;;;;;;2141294;27;20304;-45
2022/09/25 02:23:54;;;;;;;;;;;;;;;;;;2141335;27;20411;-47
2022/09/25 02:24:56;;;;;;;;;;;;;;;;;;2141259;27;19958;-46
2022/09/25 02:25:59;;;;;;;;;;;;;;;;;;2141317;27;19933;-47
2022/09/25 02:27:01;;;;;;;;;;;;;;;;;;2141156;27;19929;-45
2022/09/25 02:28:02;;;;;;;;;;;;;;;;;;2141419;27;19930;-42
2022/09/25 02:29:03;;;;;;;;;;;;;;;;;;2141224;27;19922;-42
2022/09/25 02:30:04;;;;;;;;;;;;;;;;;;2141219;27;19977;-42
2022/09/25 02:31:05;;;;;;;;;;;;;;;;;;2141189;27;19929;-42
2022/09/25 02:32:06;;;;;;;;;;;;;;;;;;2141046;27;20052;-42
2022/09/25 02:33:07;;;;;;;;;;;;;;;;;;2141303;27;19927;-42
2022/09/25 02:34:08;;;;;;;;;;;;;;;;;;2141372;27;19926;-46
2022/09/25 02:35:14;;;;;;;;;;;;;;;;;;2141191;27;20017;-46
2022/09/25 02:36:15;;;;;;;;;;;;;;;;;;2141087;27;19962;-46
2022/09/25 02:37:16;;;;;;;;;;;;;;;;;;2141130;27;19929;-45
2022/09/25 02:38:17;;;;;;;;;;;;;;;;;;2141309;27;19969;-45
2022/09/25 02:39:18;;;;;;;;;;;;;;;;;;2141086;27;19975;-45
2022/09/25 02:40:19;;;;;;;;;;;;;;;;;;2141185;27;19923;-45
2022/09/25 02:41:20;;;;;;;;;;;;;;;;;;2141161;27;19926;-46
2022/09/25 02:42:21;;;;;;;;;;;;;;;;;;2141226;27;19947;-46
2022/09/25 02:43:21;;;;;;;;;;;;;;;;;;2141064;27;19952;-45
2022/09/25 02:44:22;;;;;;;;;;;;;;;;;;2141257;27;19930;-45
2022/09/25 02:45:23;;;;;;;;;;;;;;;;;;2141084;27;20333;-45
2022/09/25 02:46:24;;;;;;;;;;;;;;;;;;2141109;27;19926;-47
2022/09/25 02:47:25;;;;;;;;;;;;;;;;;;2141133;27;20025;-46
2022/09/25 02:48:26;;;;;;;;;;;;;;;;;;2141180;27;20374;-45
2022/09/25 02:49:26;;;;;;;;;;;;;;;;;;2141056;27;19922;-46
2022/09/25 02:50:27;;;;;;;;;;;;;;;;;;2141043;27;20045;-45
2022/09/25 02:51:28;;;;;;;;;;;;;;;;;;2140902;27;19991;-47
2022/09/25 02:52:29;;;;;;;;;;;;;;;;;;2141051;27;19923;-45
2022/09/25 02:53:30;;;;;;;;;;;;;;;;;;2141166;27;19923;-46
2022/09/25 02:54:31;;;;;;;;;;;;;;;;;;2141004;27;20025;-46
2022/09/25 02:55:31;;;;;;;;;;;;;;;;;;2140956;27;19923;-45
2022/09/25 02:56:32;;;;;;;;;;;;;;;;;;2140902;27;19930;-45
2022/09/25 02:57:33;;;;;;;;;;;;;;;;;;2141059;27;20264;-45
2022/09/25 02:58:34;;;;;;;;;;;;;;;;;;2141032;27;19970;-47
2022/09/25 02:59:35;;;;;;;;;;;;;;;;;;2141066;27;19923;-46
2022/09/25 03:00:36;;;;;;;;;;;;;;;;;;2140915;27;20017;-46
2022/09/25 03:01:37;;;;;;;;;;;;;;;;;;2141038;27;19923;-45
2022/09/25 03:02:38;;;;;;;;;;;;;;;;;;2141004;27;20324;-46
2022/09/25 03:03:38;;;;;;;;;;;;;;;;;;2141156;27;19948;-42
2022/09/25 03:04:39;;;;;;;;;;;;;;;;;;2140946;27;19923;-42
2022/09/25 03:05:40;;;;;;;;;;;;;;;;;;2140901;27;19924;-43
2022/09/25 03:06:41;;;;;;;;;;;;;;;;;;2140965;27;19962;-43
2022/09/25 03:09:01;;;;;;;;;;;;;;;;;;2141078;27;19930;-42
2022/09/25 03:10:02;;;;;;;;;;;;;;;;;;2140859;27;20324;-43
2022/09/25 03:11:04;;;;;;;;;;;;;;;;;;2140674;27;19968;-42
2022/09/25 03:12:04;;;;;;;;;;;;;;;;;;2140671;27;19927;-43
2022/09/25 03:13:05;;;;;;;;;;;;;;;;;;2139815;27;19929;-43
2022/09/25 03:14:06;;;;;;;;;;;;;;;;;;2140966;27;20283;-43
2022/09/25 03:15:07;;;;;;;;;;;;;;;;;;2141218;27;19967;-42
2022/09/25 03:16:08;;;;;;;;;;;;;;;;;;2140860;27;19967;-46
2022/09/25 03:17:09;;;;;;;;;;;;;;;;;;2140739;27;19923;-46
2022/09/25 03:18:10;;;;;;;;;;;;;;;;;;2140986;27;20283;-45
2022/09/25 03:19:11;;;;;;;;;;;;;;;;;;2140865;27;19923;-46
2022/09/25 03:20:12;;;;;;;;;;;;;;;;;;2141055;27;20042;-46
2022/09/25 03:21:12;;;;;;;;;;;;;;;;;;2140845;27;19930;-45
2022/09/25 03:22:13;;;;;;;;;;;;;;;;;;2140696;27;19965;-45
2022/09/25 03:23:14;;;;;;;;;;;;;;;;;;2140954;27;19926;-46
2022/09/25 03:24:15;;;;;;;;;;;;;;;;;;2141086;27;19923;-46
2022/09/25 03:25:16;;;;;;;;;;;;;;;;;;2140805;27;19975;-45
2022/09/25 03:26:17;;;;;;;;;;;;;;;;;;2140727;27;19923;-46
2022/09/25 03:27:19;;;;;;;;;;;;;;;;;;2140809;27;19923;-46
2022/09/25 03:28:20;;;;;;;;;;;;;;;;;;2140778;27;20325;-46
2022/09/25 03:29:21;;;;;;;;;;;;;;;;;;2140701;27;19922;-46
2022/09/25 03:30:23;;;;;;;;;;;;;;;;;;2140814;27;19927;-45
2022/09/25 03:31:23;;;;;;;;;;;;;;;;;;2140665;27;19986;-45
2022/09/25 03:32:24;;;;;;;;;;;;;;;;;;2140880;27;20433;-45
2022/09/25 03:33:25;;;;;;;;;;;;;;;;;;2140895;27;19930;-46
2022/09/25 03:34:26;;;;;;;;;;;;;;;;;;2141029;27;20028;-45
2022/09/25 03:35:27;;;;;;;;;;;;;;;;;;2140976;27;20302;-47
2022/09/25 03:36:28;;;;;;;;;;;;;;;;;;2140762;27;19958;-45
2022/09/25 03:37:30;;;;;;;;;;;;;;;;;;2140701;27;19923;-46
2022/09/25 03:38:31;;;;;;;;;;;;;;;;;;2140854;27;19923;-46
2022/09/25 03:39:31;;;;;;;;;;;;;;;;;;2140760;27;19927;-45
2022/09/25 03:40:32;;;;;;;;;;;;;;;;;;2140682;27;20005;-46
2022/09/25 03:41:33;;;;;;;;;;;;;;;;;;2140690;27;19973;-46
2022/09/25 03:42:35;;;;;;;;;;;;;;;;;;2140845;27;19927;-46
2022/09/25 03:43:36;;;;;;;;;;;;;;;;;;2140717;27;19930;-45
2022/09/25 03:44:37;;;;;;;;;;;;;;;;;;2140806;27;20384;-46
2022/09/25 03:45:37;;;;;;;;;;;;;;;;;;2141007;27;20367;-45
2022/09/25 03:46:38;;;;;;;;;;;;;;;;;;2140759;27;19933;-43
2022/09/25 03:47:39;;;;;;;;;;;;;;;;;;2141036;27;20021;-42
2022/09/25 03:48:40;;;;;;;;;;;;;;;;;;2140680;27;20371;-43
2022/09/25 03:49:41;;;;;;;;;;;;;;;;;;2140703;27;19923;-42
2022/09/25 03:50:42;;;;;;;;;;;;;;;;;;2140668;27;19923;-42
2022/09/25 03:51:42;;;;;;;;;;;;;;;;;;2140698;27;20311;-42
2022/09/25 03:52:43;;;;;;;;;;;;;;;;;;2140679;27;20339;-43
2022/09/25 03:53:44;;;;;;;;;;;;;;;;;;2140661;27;19926;-43
2022/09/25 03:54:45;;;;;;;;;;;;;;;;;;2140738;27;19929;-43
2022/09/25 03:55:47;;;;;;;;;;;;;;;;;;2140757;27;19923;-42
2022/09/25 03:56:48;;;;;;;;;;;;;;;;;;2140514;27;19930;-43
2022/09/25 03:57:49;;;;;;;;;;;;;;;;;;2140607;27;19923;-43
2022/09/25 03:58:50;;;;;;;;;;;;;;;;;;2140612;27;19923;-42
2022/09/25 03:59:51;;;;;;;;;;;;;;;;;;2140770;27;19972;-46
2022/09/25 04:00:55;;;;;;;;;;;;;;;;;;2140769;27;20027;-45
2022/09/25 04:01:57;;;;;;;;;;;;;;;;;;2140610;27;19945;-46
2022/09/25 04:02:58;;;;;;;;;;;;;;;;;;2140746;27;19943;-45
2022/09/25 04:04:01;;;;;;;;;;;;;;;;;;2140641;27;19965;-46
2022/09/25 04:05:03;;;;;;;;;;;;;;;;;;2140551;27;20270;-46
2022/09/25 04:06:03;;;;;;;;;;;;;;;;;;2140589;27;19923;-45
2022/09/25 04:07:05;;;;;;;;;;;;;;;;;;2140499;27;19933;-45
2022/09/25 04:08:05;;;;;;;;;;;;;;;;;;2137017;27;20284;-46
2022/09/25 04:09:06;;;;;;;;;;;;;;;;;;2133582;27;19923;-46
2022/09/25 04:10:07;;;;;;;;;;;;;;;;;;2140459;27;19973;-45
2022/09/25 04:11:08;;;;;;;;;;;;;;;;;;2139465;27;19937;-45
2022/09/25 04:12:08;;;;;;;;;;;;;;;;;;2131922;27;19927;-45
2022/09/25 04:13:11;;;;;;;;;;;;;;;;;;2131884;27;20279;-46
2022/09/25 04:14:13;;;;;;;;;;;;;;;;;;2132015;27;19923;-46
2022/09/25 04:15:14;;;;;;;;;;;;;;;;;;2131953;27;19923;-45
2022/09/25 04:16:15;;;;;;;;;;;;;;;;;;2131824;27;19924;-46
2022/09/25 04:17:16;;;;;;;;;;;;;;;;;;2131737;27;20379;-46
2022/09/25 04:18:17;;;;;;;;;;;;;;;;;;2132024;27;19927;-46
2022/09/25 04:19:18;;;;;;;;;;;;;;;;;;2132011;27;19923;-46
2022/09/25 04:20:18;;;;;;;;;;;;;;;;;;2131792;27;19923;-45
2022/09/25 04:21:19;;;;;;;;;;;;;;;;;;2132002;27;20035;-43
2022/09/25 04:22:20;;;;;;;;;;;;;;;;;;2132061;27;20034;-46
2022/09/25 04:23:21;;;;;;;;;;;;;;;;;;2131916;27;20407;-45
2022/09/25 04:25:41;;;;;;;;;;;;;;;;;;2131963;27;19927;-46
2022/09/25 04:26:42;;;;;;;;;;;;;;;;;;2131727;27;19923;-46
2022/09/25 04:27:45;;;;;;;;;;;;;;;;;;2131968;27;19930;-43
2022/09/25 04:28:45;;;;;;;;;;;;;;;;;;2131794;27;19930;-42
2022/09/25 04:29:46;;;;;;;;;;;;;;;;;;2131861;27;19923;-42
2022/09/25 04:30:47;;;;;;;;;;;;;;;;;;2132064;27;20018;-46
2022/09/25 04:33:44;;;;;;;;;;;;;;;;;;2131689;27;19923;-46
2022/09/25 04:34:28;;;;;;;;;;;;;;;;;;2131895;27;19923;-45
2022/09/25 04:35:29;;;;;;;;;;;;;;;;;;2131803;27;19930;-46
2022/09/25 04:36:30;;;;;;;;;;;;;;;;;;2131839;27;19923;-46
2022/09/25 04:37:30;;;;;;;;;;;;;;;;;;2132022;27;20355;-43
2022/09/25 04:38:31;;;;;;;;;;;;;;;;;;2131784;27;20351;-43
2022/09/25 04:39:32;;;;;;;;;;;;;;;;;;2131860;27;19923;-42
2022/09/25 04:40:33;;;;;;;;;;;;;;;;;;2131649;27;19923;-42
2022/09/25 04:41:34;;;;;;;;;;;;;;;;;;2131660;27;19927;-42
2022/09/25 04:42:35;;;;;;;;;;;;;;;;;;2131725;27;20027;-42
2022/09/25 04:43:35;;;;;;;;;;;;;;;;;;2131691;27;19923;-42
2022/09/25 04:44:36;;;;;;;;;;;;;;;;;;2131770;27;19923;-43
2022/09/25 04:45:37;;;;;;;;;;;;;;;;;;2131690;27;20000;-42
2022/09/25 04:46:38;;;;;;;;;;;;;;;;;;2131552;27;19961;-42
2022/09/25 04:47:39;;;;;;;;;;;;;;;;;;2131892;27;19930;-46
2022/09/25 04:48:40;;;;;;;;;;;;;;;;;;2131858;27;19966;-46
2022/09/25 04:49:40;;;;;;;;;;;;;;;;;;2131701;27;19923;-45
2022/09/25 04:50:42;;;;;;;;;;;;;;;;;;2132027;27;19927;-42
2022/09/25 04:51:43;;;;;;;;;;;;;;;;;;2131976;27;19923;-46
2022/09/25 04:52:44;;;;;;;;;;;;;;;;;;2131791;27;19949;-46
2022/09/25 04:53:45;;;;;;;;;;;;;;;;;;2131820;27;19983;-46
2022/09/25 04:54:46;;;;;;;;;;;;;;;;;;2131960;27;19927;-43
2022/09/25 04:55:47;;;;;;;;;;;;;;;;;;2131886;27;19960;-43
2022/09/25 04:56:48;;;;;;;;;;;;;;;;;;2131568;27;20016;-43
2022/09/25 04:57:51;;;;;;;;;;;;;;;;;;2131712;27;19923;-43
2022/09/25 04:58:59;;;;;;;;;;;;;;;;;;2131794;27;19934;-43
2022/09/25 05:00:00;;;;;;;;;;;;;;;;;;2131728;27;19950;-43
2022/09/25 05:01:01;;;;;;;;;;;;;;;;;;2131741;27;19923;-43
2022/09/25 05:02:02;;;;;;;;;;;;;;;;;;2131683;27;19923;-43
2022/09/25 05:03:03;;;;;;;;;;;;;;;;;;2131787;27;20001;-42
2022/09/25 05:04:04;;;;;;;;;;;;;;;;;;2131714;27;19934;-43
2022/09/25 05:05:09;;;;;;;;;;;;;;;;;;2131544;27;19954;-42
2022/09/25 05:06:10;;;;;;;;;;;;;;;;;;2131694;27;19931;-43
2022/09/25 05:07:11;;;;;;;;;;;;;;;;;;2131740;27;19950;-43
2022/09/25 05:08:11;;;;;;;;;;;;;;;;;;2131741;27;19923;-42
2022/09/25 05:09:12;;;;;;;;;;;;;;;;;;2131511;27;20071;-43
2022/09/25 05:10:13;;;;;;;;;;;;;;;;;;2131624;27;19962;-43
2022/09/25 05:11:14;;;;;;;;;;;;;;;;;;2133500;27;20376;-43
2022/09/25 05:12:15;;;;;;;;;;;;;;;;;;2140262;27;19923;-43
2022/09/25 05:13:17;;;;;;;;;;;;;;;;;;2140302;27;19995;-43
2022/09/25 05:14:18;;;;;;;;;;;;;;;;;;2140287;27;19923;-43
2022/09/25 05:15:19;;;;;;;;;;;;;;;;;;2140270;27;20371;-46
2022/09/25 05:16:20;;;;;;;;;;;;;;;;;;2140027;27;19923;-46
2022/09/25 05:17:21;;;;;;;;;;;;;;;;;;2140197;27;19930;-46
2022/09/25 05:18:22;;;;;;;;;;;;;;;;;;2140107;27;19923;-47
2022/09/25 05:19:23;;;;;;;;;;;;;;;;;;2140172;27;19923;-47
2022/09/25 05:20:23;;;;;;;;;;;;;;;;;;2140382;27;20451;-43
2022/09/25 05:21:24;;;;;;;;;;;;;;;;;;2140107;27;20103;-43
2022/09/25 05:22:25;;;;;;;;;;;;;;;;;;2140224;27;20419;-43
2022/09/25 05:23:26;;;;;;;;;;;;;;;;;;2140889;27;20352;-47
2022/09/25 05:24:27;;;;;;;;;;;;;;;;;;2140267;27;20284;-47
2022/09/25 05:25:28;;;;;;;;;;;;;;;;;;2140095;27;19962;-46
2022/09/25 05:26:29;;;;;;;;;;;;;;;;;;2139959;27;19966;-47
2022/09/25 05:27:30;;;;;;;;;;;;;;;;;;2140092;27;19922;-47
2022/09/25 05:28:30;;;;;;;;;;;;;;;;;;2140249;27;20253;-46
2022/09/25 05:29:33;;;;;;;;;;;;;;;;;;2140033;27;19923;-43
2022/09/25 05:30:34;;;;;;;;;;;;;;;;;;2140226;27;19923;-43
2022/09/25 05:31:35;;;;;;;;;;;;;;;;;;2140163;27;20287;-46
2022/09/25 05:32:36;;;;;;;;;;;;;;;;;;2140267;27;20320;-43
2022/09/25 05:33:37;;;;;;;;;;;;;;;;;;2140235;27;19922;-43
2022/09/25 05:34:37;;;;;;;;;;;;;;;;;;2140033;27;19922;-43
2022/09/25 05:35:39;;;;;;;;;;;;;;;;;;2140232;27;19923;-43
2022/09/25 05:36:39;;;;;;;;;;;;;;;;;;2141193;27;19922;-43
2022/09/25 05:37:40;;;;;;;;;;;;;;;;;;2141598;27;19971;-43
2022/09/25 05:38:41;;;;;;;;;;;;;;;;;;2141732;27;19923;-43
2022/09/25 05:39:42;;;;;;;;;;;;;;;;;;2141684;27;20001;-46
2022/09/25 05:40:43;;;;;;;;;;;;;;;;;;2141529;27;19935;-47
2022/09/25 05:41:44;;;;;;;;;;;;;;;;;;2141593;27;19926;-43
2022/09/25 05:42:44;;;;;;;;;;;;;;;;;;2141474;27;19933;-43
2022/09/25 05:43:46;;;;;;;;;;;;;;;;;;2141624;27;19962;-43
2022/09/25 05:44:47;;;;;;;;;;;;;;;;;;2141704;27;19930;-43
2022/09/25 05:45:48;;;;;;;;;;;;;;;;;;2141687;27;20371;-46
2022/09/25 05:46:49;;;;;;;;;;;;;;;;;;2141474;27;19961;-46
2022/09/25 05:47:50;;;;;;;;;;;;;;;;;;2141504;27;19923;-47
2022/09/25 05:48:51;;;;;;;;;;;;;;;;;;2141653;27;19926;-46
2022/09/25 05:49:52;;;;;;;;;;;;;;;;;;2141334;27;19971;-47
2022/09/25 05:50:52;;;;;;;;;;;;;;;;;;2141684;27;19930;-46
2022/09/25 05:51:53;;;;;;;;;;;;;;;;;;2141650;27;19923;-48
2022/09/25 05:52:54;;;;;;;;;;;;;;;;;;2141453;27;19931;-46
2022/09/25 05:53:55;;;;;;;;;;;;;;;;;;2141573;27;19923;-47
2022/09/25 05:54:56;;;;;;;;;;;;;;;;;;2141487;27;19939;-46
2022/09/25 05:55:57;;;;;;;;;;;;;;;;;;2141391;27;19923;-46
2022/09/25 05:56:57;;;;;;;;;;;;;;;;;;2141565;27;19971;-43
2022/09/25 05:57:58;;;;;;;;;;;;;;;;;;2141551;27;19927;-43
2022/09/25 05:59:00;;;;;;;;;;;;;;;;;;2141384;27;20557;-43
2022/09/25 06:00:01;;;;;;;;;;;;;;;;;;2141735;27;19943;-43
2022/09/25 06:01:02;;;;;;;;;;;;;;;;;;2141234;27;19926;-43
2022/09/25 06:02:03;;;;;;;;;;;;;;;;;;2141393;27;19971;-43
2022/09/25 06:03:03;;;;;;;;;;;;;;;;;;2141354;27;19927;-43
2022/09/25 06:04:04;;;;;;;;;;;;;;;;;;2141493;27;19927;-43
2022/09/25 06:05:05;;;;;;;;;;;;;;;;;;2141505;27;19923;-43
2022/09/25 06:06:06;;;;;;;;;;;;;;;;;;2141328;27;19923;-43
2022/09/25 06:07:08;;;;;;;;;;;;;;;;;;2141256;27;19927;-43
2022/09/25 06:08:10;;;;;;;;;;;;;;;;;;2141372;27;19934;-43
2022/09/25 06:09:10;;;;;;;;;;;;;;;;;;2141542;27;19934;-43
2022/09/25 06:10:11;;;;;;;;;;;;;;;;;;2141256;27;19923;-43
2022/09/25 06:11:12;;;;;;;;;;;;;;;;;;2141112;27;19977;-43
2022/09/25 06:12:13;;;;;;;;;;;;;;;;;;2141243;27;20288;-43
2022/09/25 06:13:14;;;;;;;;;;;;;;;;;;2141327;27;19927;-43
2022/09/25 06:14:15;;;;;;;;;;;;;;;;;;2141217;27;19926;-44
2022/09/25 06:15:16;;;;;;;;;;;;;;;;;;2141569;27;19923;-46
2022/09/25 06:16:18;;;;;;;;;;;;;;;;;;2141409;27;19973;-46
2022/09/25 06:17:19;;;;;;;;;;;;;;;;;;2141219;27;19930;-46
2022/09/25 06:18:20;;;;;;;;;;;;;;;;;;2141500;27;19930;-46
2022/09/25 06:19:20;;;;;;;;;;;;;;;;;;2141322;27;20406;-46
2022/09/25 06:20:21;;;;;;;;;;;;;;;;;;2141219;27;19980;-46
2022/09/25 06:21:22;;;;;;;;;;;;;;;;;;2141519;27;19930;-43
2022/09/25 06:22:23;;;;;;;;;;;;;;;;;;2141241;27;19967;-43
2022/09/25 06:23:24;;;;;;;;;;;;;;;;;;2141134;27;20030;-44
2022/09/25 06:24:25;;;;;;;;;;;;;;;;;;2141355;27;19934;-43
2022/09/25 06:25:26;;;;;;;;;;;;;;;;;;2141369;27;19923;-45
2022/09/25 06:26:27;;;;;;;;;;;;;;;;;;2141221;27;19923;-45
2022/09/25 06:27:27;;;;;;;;;;;;;;;;;;2141250;27;20021;-46
2022/09/25 06:28:29;;;;;;;;;;;;;;;;;;2141195;27;19929;-46
2022/09/25 06:29:30;;;;;;;;;;;;;;;;;;2141290;27;19922;-46
2022/09/25 06:30:33;;;;;;;;;;;;;;;;;;2141687;27;19944;-45
2022/09/25 06:31:33;;;;;;;;;;;;;;;;;;2141145;27;19922;-46
2022/09/25 06:32:35;;;;;;;;;;;;;;;;;;2141078;27;19922;-46
2022/09/25 06:33:35;;;;;;;;;;;;;;;;;;2141495;27;19985;-46
2022/09/25 06:34:36;;;;;;;;;;;;;;;;;;2141420;27;20375;-43
2022/09/25 06:35:37;;;;;;;;;;;;;;;;;;2141368;27;19930;-44
2022/09/25 06:36:38;;;;;;;;;;;;;;;;;;2141249;27;19926;-43
2022/09/25 06:37:39;;;;;;;;;;;;;;;;;;2141267;27;19923;-44
2022/09/25 06:38:40;;;;;;;;;;;;;;;;;;2141483;27;19923;-43
2022/09/25 06:39:40;;;;;;;;;;;;;;;;;;2141089;27;19969;-42
2022/09/25 06:40:41;;;;;;;;;;;;;;;;;;2141306;27;19980;-46
2022/09/25 06:41:42;;;;;;;;;;;;;;;;;;2141644;27;19922;-43
2022/09/25 06:42:44;;;;;;;;;;;;;;;;;;2141432;27;19923;-43
2022/09/25 06:43:46;;;;;;;;;;;;;;;;;;2141241;27;20291;-47
2022/09/25 06:44:47;;;;;;;;;;;;;;;;;;2141398;27;19923;-46
2022/09/25 06:45:49;;;;;;;;;;;;;;;;;;2141019;27;19922;-45
2022/09/25 06:46:53;;;;;;;;;;;;;;;;;;2141280;27;19997;-46
2022/09/25 06:47:56;;;;;;;;;;;;;;;;;;2141186;27;19946;-43
2022/09/25 06:48:57;;;;;;;;;;;;;;;;;;2141370;27;19926;-41
2022/09/25 06:49:58;;;;;;;;;;;;;;;;;;2140925;27;19961;-43
2022/09/25 06:50:59;;;;;;;;;;;;;;;;;;2141036;27;19927;-43
2022/09/25 06:52:00;;;;;;;;;;;;;;;;;;2141025;27;19923;-42
2022/09/25 06:53:01;;;;;;;;;;;;;;;;;;2141045;27;19926;-42
2022/09/25 06:54:02;;;;;;;;;;;;;;;;;;2141259;27;19923;-42
2022/09/25 06:55:03;;;;;;;;;;;;;;;;;;2141100;27;19929;-42
2022/09/25 06:56:04;;;;;;;;;;;;;;;;;;2141110;27;19923;-42
2022/09/25 06:57:05;;;;;;;;;;;;;;;;;;2140856;27;19927;-42
2022/09/25 06:58:06;;;;;;;;;;;;;;;;;;2141107;27;20283;-44
2022/09/25 06:59:08;;;;;;;;;;;;;;;;;;2141546;27;19923;-42
2022/09/25 07:00:08;;;;;;;;;;;;;;;;;;2140905;27;20441;-42
2022/09/25 07:01:10;;;;;;;;;;;;;;;;;;2141151;27;20320;-42
2022/09/25 07:04:49;;;;;;;;;;;;;;;;;;2137926;27;19922;-45
2022/09/25 07:05:50;;;;;;;;;;;;;;;;;;2140947;27;19923;-45
2022/09/25 07:06:55;;;;;;;;;;;;;;;;;;2140878;27;19956;-45
2022/09/25 07:07:56;;;;;;;;;;;;;;;;;;2141156;27;19930;-45